Time;durP1;ratioP1;P1;durP2;ratioP2;P2;SDS_P1;SDS_P2;PMS_P1;PMS_P2;Temp;Humidity;BMP_temperature;BMP_pressure;BME280_temperature;BME280_humidity;BME280_pressure;Samples;Min_cycle;Max_cycle;Signal;HPM_P1;HPM_P2
2023/12/11 00:01:33;;;;;;;2.28;0.40;;;10.00;82.30;;;;;;5001531;28;20109;-65
2023/12/11 00:03:59;;;;;;;2.03;0.50;;;10.00;82.60;;;;;;5002551;28;20038;-65
2023/12/11 00:06:24;;;;;;;0.63;0.40;;;10.00;82.50;;;;;;5001730;28;20045;-65
2023/12/11 00:08:50;;;;;;;0.63;0.30;;;10.10;82.70;;;;;;5001545;28;20034;-65
2023/12/11 00:11:16;;;;;;;1.50;0.40;;;10.10;82.80;;;;;;5002232;28;20034;-66
2023/12/11 00:13:42;;;;;;;1.95;0.30;;;10.10;82.80;;;;;;5001944;28;20080;-65
2023/12/11 00:16:07;;;;;;;2.97;0.40;;;10.10;83.10;;;;;;5001458;28;20042;-65
2023/12/11 00:18:33;;;;;;;1.80;0.32;;;10.00;83.00;;;;;;5000159;28;20510;-65
2023/12/11 00:20:59;;;;;;;2.10;0.40;;;10.10;83.10;;;;;;5000621;28;20704;-65
2023/12/11 00:23:25;;;;;;;0.95;0.20;;;10.10;83.10;;;;;;5001200;28;20053;-65
2023/12/11 00:25:51;;;;;;;2.08;0.45;;;10.20;83.20;;;;;;4999923;28;20034;-65
2023/12/11 00:28:17;;;;;;;0.82;0.38;;;10.20;83.30;;;;;;5002014;28;20627;-65
2023/12/11 00:30:42;;;;;;;1.05;0.30;;;10.20;83.40;;;;;;5000535;28;20073;-65
2023/12/11 00:33:08;;;;;;;1.60;0.30;;;10.20;83.60;;;;;;5001524;28;20046;-65
2023/12/11 00:35:33;;;;;;;1.10;0.30;;;10.20;83.60;;;;;;5001908;28;20112;-65
2023/12/11 00:37:59;;;;;;;1.85;0.52;;;10.20;83.60;;;;;;5001001;28;20038;-65
2023/12/11 00:40:25;;;;;;;1.00;0.30;;;10.30;83.60;;;;;;5001191;28;20041;-65
2023/12/11 00:42:50;;;;;;;2.38;0.32;;;10.20;83.60;;;;;;4999562;28;20038;-65
2023/12/11 00:45:16;;;;;;;1.30;0.45;;;10.30;83.70;;;;;;5002009;28;20039;-65
2023/12/11 00:47:42;;;;;;;1.67;0.30;;;10.30;83.80;;;;;;5000301;28;20048;-65
2023/12/11 00:50:08;;;;;;;0.70;0.30;;;10.30;83.80;;;;;;4999706;28;20048;-65
2023/12/11 00:52:33;;;;;;;1.05;0.20;;;10.30;83.90;;;;;;4999216;28;20034;-66
2023/12/11 00:54:59;;;;;;;1.05;0.32;;;10.30;84.00;;;;;;4999570;28;20125;-65
2023/12/11 00:57:25;;;;;;;2.40;0.30;;;10.30;84.10;;;;;;5000779;28;20038;-65
2023/12/11 00:59:51;;;;;;;1.60;0.30;;;10.30;84.10;;;;;;4999171;28;20056;-65
2023/12/11 01:02:17;;;;;;;1.52;0.32;;;10.30;84.20;;;;;;4999661;28;20030;-65
2023/12/11 01:04:44;;;;;;;0.68;0.40;;;10.30;84.20;;;;;;4999123;28;20062;-65
2023/12/11 01:07:10;;;;;;;2.17;0.30;;;10.30;85.20;;;;;;5000084;28;20457;-65
2023/12/11 01:09:36;;;;;;;0.65;0.30;;;10.30;84.40;;;;;;4999709;28;20038;-65
2023/12/11 01:12:02;;;;;;;0.95;0.30;;;10.30;84.60;;;;;;5000070;28;20034;-65
2023/12/11 01:14:28;;;;;;;0.73;0.35;;;10.30;84.60;;;;;;5000380;28;20040;-65
2023/12/11 01:16:53;;;;;;;1.17;0.30;;;10.30;84.80;;;;;;5000052;28;20052;-65
2023/12/11 01:19:19;;;;;;;0.98;0.30;;;10.30;84.90;;;;;;4999974;28;20510;-65
2023/12/11 01:21:45;;;;;;;1.45;0.30;;;10.30;85.00;;;;;;4999584;28;20046;-65
2023/12/11 01:24:11;;;;;;;0.40;0.20;;;10.30;85.20;;;;;;5000142;28;20042;-65
2023/12/11 01:26:37;;;;;;;1.00;0.28;;;10.30;85.30;;;;;;5000240;28;20034;-65
2023/12/11 01:29:03;;;;;;;1.25;0.45;;;10.30;85.50;;;;;;5000576;28;20116;-66
2023/12/11 01:31:29;;;;;;;0.30;0.20;;;10.30;85.70;;;;;;5001043;28;20125;-65
2023/12/11 01:33:56;;;;;;;1.00;0.32;;;10.30;85.70;;;;;;5000472;28;20034;-66
2023/12/11 01:36:22;;;;;;;0.20;0.17;;;10.30;85.90;;;;;;5000498;28;20030;-66
2023/12/11 01:38:50;;;;;;;0.60;0.20;;;10.30;86.00;;;;;;4999143;28;20052;-65
2023/12/11 01:41:16;;;;;;;1.60;0.30;;;10.30;86.20;;;;;;5000514;28;20040;-66
2023/12/11 01:43:50;;;;;;;0.57;0.20;;;10.30;86.30;;;;;;5000541;28;20030;-65
2023/12/11 01:46:18;;;;;;;0.90;0.30;;;10.30;86.30;;;;;;5001009;28;20038;-66
2023/12/11 01:48:44;;;;;;;2.78;0.40;;;10.30;86.40;;;;;;4999821;28;20096;-66
2023/12/11 01:51:10;;;;;;;0.45;0.20;;;10.30;86.60;;;;;;4999664;28;20123;-65
2023/12/11 01:53:36;;;;;;;1.65;0.22;;;10.30;86.60;;;;;;4998610;28;20042;-65
2023/12/11 01:56:02;;;;;;;1.77;0.20;;;10.30;86.70;;;;;;4999394;28;20040;-65
2023/12/11 01:58:30;;;;;;;0.55;0.30;;;10.30;86.90;;;;;;5000328;28;20054;-65
2023/12/11 02:00:56;;;;;;;1.77;0.20;;;10.30;87.30;;;;;;5002132;28;20029;-65
2023/12/11 02:03:22;;;;;;;0.38;0.20;;;10.30;87.40;;;;;;4998581;28;20108;-65
2023/12/11 02:05:49;;;;;;;1.00;0.30;;;10.30;87.60;;;;;;4998755;28;20797;-65
2023/12/11 02:08:15;;;;;;;0.32;0.20;;;10.30;87.70;;;;;;4999295;28;20034;-65
2023/12/11 02:10:41;;;;;;;0.43;0.20;;;10.30;88.00;;;;;;4999524;28;20261;-65
2023/12/11 02:13:07;;;;;;;0.50;0.10;;;10.30;88.10;;;;;;4998661;28;20070;-65
2023/12/11 02:15:43;;;;;;;0.50;0.15;;;10.40;88.10;;;;;;4999166;28;20122;-65
2023/12/11 02:18:14;;;;;;;0.35;0.20;;;10.40;88.50;;;;;;4999301;28;20113;-65
2023/12/11 02:20:41;;;;;;;0.40;0.15;;;10.40;88.60;;;;;;4998743;28;20044;-65
2023/12/11 02:23:21;;;;;;;0.32;0.20;;;10.40;88.40;;;;;;4999593;28;20041;-65
2023/12/11 02:25:59;;;;;;;0.10;0.00;;;10.40;88.50;;;;;;4997846;28;20058;-65
2023/12/11 02:28:25;;;;;;;0.52;0.17;;;10.40;88.60;;;;;;4999621;28;20030;-65
2023/12/11 02:30:51;;;;;;;0.45;0.10;;;10.40;88.50;;;;;;4998439;28;20093;-65
2023/12/11 02:33:17;;;;;;;0.10;0.10;;;10.50;88.80;;;;;;4999673;28;20029;-65
2023/12/11 02:35:45;;;;;;;0.30;0.10;;;10.50;89.00;;;;;;4998903;28;20129;-65
2023/12/11 02:38:11;;;;;;;0.38;0.10;;;10.50;89.00;;;;;;4999671;28;20092;-65
2023/12/11 02:40:36;;;;;;;1.00;0.10;;;10.50;89.20;;;;;;4998171;28;20455;-65
2023/12/11 02:43:02;;;;;;;0.65;0.20;;;10.50;89.20;;;;;;4999184;28;20039;-65
2023/12/11 02:45:28;;;;;;;0.30;0.20;;;10.50;89.20;;;;;;4997836;28;20048;-65
2023/12/11 02:48:02;;;;;;;0.50;0.10;;;10.50;89.20;;;;;;4999079;28;20724;-65
2023/12/11 02:50:30;;;;;;;0.10;0.10;;;10.50;89.30;;;;;;4997814;28;20498;-65
2023/12/11 02:53:00;;;;;;;0.40;0.10;;;10.50;89.30;;;;;;4998749;28;20273;-65
2023/12/11 02:55:26;;;;;;;0.10;0.03;;;10.50;90.20;;;;;;4998510;28;20429;-65
2023/12/11 02:57:59;;;;;;;0.22;0.10;;;10.60;89.90;;;;;;4998059;28;20042;-65
2023/12/11 03:00:26;;;;;;;1.17;0.10;;;10.60;90.10;;;;;;4998446;28;20251;-65
2023/12/11 03:02:52;;;;;;;0.38;0.10;;;10.60;90.10;;;;;;4998584;28;20536;-65
2023/12/11 03:05:17;;;;;;;0.63;0.10;;;10.50;90.00;;;;;;4999194;28;20046;-66
2023/12/11 03:07:43;;;;;;;0.35;0.20;;;10.60;90.10;;;;;;4998244;28;20033;-65
2023/12/11 03:10:09;;;;;;;0.10;0.10;;;10.50;90.10;;;;;;4998029;28;20053;-65
2023/12/11 03:12:35;;;;;;;0.10;0.10;;;10.60;90.20;;;;;;4997333;28;20042;-65
2023/12/11 03:15:02;;;;;;;0.15;0.10;;;10.60;90.20;;;;;;4997546;28;20038;-65
2023/12/11 03:17:27;;;;;;;0.20;0.10;;;10.60;90.20;;;;;;4997174;28;20034;-65
2023/12/11 03:19:53;;;;;;;0.30;0.20;;;10.60;90.20;;;;;;4997340;28;20050;-65
2023/12/11 03:22:19;;;;;;;0.43;0.10;;;10.60;90.30;;;;;;4998205;28;20041;-65
2023/12/11 03:24:46;;;;;;;0.75;0.10;;;10.60;90.30;;;;;;4997580;28;20062;-65
2023/12/11 03:27:11;;;;;;;0.38;0.20;;;10.60;90.30;;;;;;5011765;28;20046;-65
2023/12/11 03:29:37;;;;;;;1.05;0.20;;;10.60;90.30;;;;;;4998383;28;20046;-65
2023/12/11 03:32:03;;;;;;;0.17;0.10;;;10.70;90.40;;;;;;4997847;28;20042;-65
2023/12/11 03:34:28;;;;;;;0.20;0.10;;;10.60;90.40;;;;;;4997649;28;20034;-65
2023/12/11 03:36:54;;;;;;;0.15;0.10;;;10.70;90.40;;;;;;4997440;28;20081;-65
2023/12/11 03:39:20;;;;;;;0.52;0.10;;;10.70;90.50;;;;;;4997722;28;20030;-65
2023/12/11 03:41:45;;;;;;;0.50;0.10;;;10.70;90.50;;;;;;4996970;28;20057;-65
2023/12/11 03:44:11;;;;;;;0.20;0.10;;;10.70;90.50;;;;;;4998246;28;20541;-65
2023/12/11 03:46:36;;;;;;;0.50;0.20;;;10.70;90.50;;;;;;4997882;28;20114;-65
2023/12/11 03:49:02;;;;;;;0.10;0.10;;;10.80;90.50;;;;;;4998087;28;20528;-65
2023/12/11 03:51:28;;;;;;;0.10;0.10;;;10.70;90.50;;;;;;4997369;28;20393;-65
2023/12/11 03:53:53;;;;;;;0.15;0.10;;;10.70;90.50;;;;;;4997501;28;20553;-65
2023/12/11 03:56:19;;;;;;;0.25;0.20;;;10.70;90.50;;;;;;4997931;28;20030;-65
2023/12/11 03:58:44;;;;;;;0.10;0.10;;;10.70;90.50;;;;;;4998034;28;20392;-65
2023/12/11 04:01:10;;;;;;;0.15;0.10;;;10.70;90.50;;;;;;4996857;28;20521;-65
2023/12/11 04:03:36;;;;;;;0.40;0.17;;;10.70;90.50;;;;;;4998230;28;20437;-65
2023/12/11 04:06:02;;;;;;;0.10;0.10;;;10.70;90.50;;;;;;4998611;28;20026;-65
2023/12/11 04:08:27;;;;;;;0.10;0.10;;;10.70;90.40;;;;;;4998349;28;20031;-65
2023/12/11 04:10:53;;;;;;;0.20;0.17;;;10.70;90.50;;;;;;4997154;28;20058;-65
2023/12/11 04:13:19;;;;;;;0.80;0.20;;;10.70;90.50;;;;;;4997886;28;20061;-65
2023/12/11 04:15:44;;;;;;;0.20;0.10;;;10.70;90.50;;;;;;4997781;28;20023;-65
2023/12/11 04:18:10;;;;;;;0.60;0.22;;;10.70;90.50;;;;;;4999532;28;20080;-65
2023/12/11 04:20:35;;;;;;;0.52;0.20;;;10.70;90.50;;;;;;5000754;28;20513;-65
2023/12/11 04:23:01;;;;;;;0.55;0.20;;;10.70;90.50;;;;;;5001103;28;20675;-65
2023/12/11 04:25:27;;;;;;;1.17;0.38;;;10.60;90.40;;;;;;5001338;28;20069;-65
2023/12/11 04:27:52;;;;;;;0.60;0.20;;;10.60;90.40;;;;;;5000857;28;20124;-65
2023/12/11 04:30:18;;;;;;;1.38;0.30;;;10.60;90.30;;;;;;4999589;28;20042;-65
2023/12/11 04:32:44;;;;;;;0.93;0.20;;;10.60;90.30;;;;;;5000381;28;20037;-65
2023/12/11 04:35:09;;;;;;;0.40;0.20;;;10.50;90.30;;;;;;4999857;28;20041;-65
2023/12/11 04:37:35;;;;;;;1.35;0.40;;;10.50;90.20;;;;;;4999934;28;20338;-65
2023/12/11 04:40:01;;;;;;;1.23;0.30;;;10.50;90.20;;;;;;4999409;28;20050;-65
2023/12/11 04:42:27;;;;;;;0.63;0.35;;;10.40;90.30;;;;;;4999957;28;20490;-65
2023/12/11 04:44:52;;;;;;;1.17;0.40;;;10.40;90.30;;;;;;5000273;28;20066;-65
2023/12/11 04:47:18;;;;;;;0.80;0.45;;;10.30;90.40;;;;;;4999988;28;20054;-65
2023/12/11 04:49:43;;;;;;;0.50;0.32;;;10.30;90.50;;;;;;5005392;28;20037;-65
2023/12/11 04:52:09;;;;;;;1.20;0.40;;;10.20;90.60;;;;;;4999558;28;20073;-65
2023/12/11 04:54:34;;;;;;;1.90;1.35;;;10.20;90.70;;;;;;5000089;28;20042;-65
2023/12/11 04:57:00;;;;;;;1.08;1.05;;;10.20;90.80;;;;;;5002020;28;20533;-65
2023/12/11 04:59:26;;;;;;;1.15;1.05;;;10.20;90.90;;;;;;5000491;28;20034;-66
2023/12/11 05:01:51;;;;;;;2.42;1.70;;;10.20;91.00;;;;;;4999314;28;20035;-65
2023/12/11 05:04:17;;;;;;;2.03;1.00;;;10.20;91.00;;;;;;5000946;28;20022;-65
2023/12/11 05:06:44;;;;;;;0.88;0.75;;;10.20;91.00;;;;;;5001105;28;20037;-65
2023/12/11 05:09:09;;;;;;;1.92;0.70;;;10.20;91.10;;;;;;5001046;28;20033;-66
2023/12/11 05:11:35;;;;;;;0.63;0.63;;;10.20;91.10;;;;;;5001902;28;20410;-65
2023/12/11 05:14:01;;;;;;;0.73;0.60;;;10.30;91.10;;;;;;5001305;28;20042;-65
2023/12/11 05:16:26;;;;;;;0.40;0.30;;;10.30;91.10;;;;;;5000371;28;20429;-65
2023/12/11 05:18:52;;;;;;;0.47;0.40;;;10.30;91.10;;;;;;5000634;28;20116;-65
2023/12/11 05:21:17;;;;;;;0.80;0.50;;;10.30;91.10;;;;;;5000668;28;20033;-65
2023/12/11 05:23:43;;;;;;;0.68;0.50;;;10.30;91.10;;;;;;5000073;28;20026;-65
2023/12/11 05:26:09;;;;;;;0.77;0.60;;;10.30;91.10;;;;;;5000134;28;20037;-65
2023/12/11 05:28:34;;;;;;;1.00;0.40;;;10.40;91.10;;;;;;4998688;28;20109;-65
2023/12/11 05:31:00;;;;;;;0.50;0.50;;;10.40;91.10;;;;;;4999331;28;20095;-65
2023/12/11 05:33:26;;;;;;;0.60;0.50;;;10.40;91.10;;;;;;4999817;28;20033;-65
2023/12/11 05:35:51;;;;;;;1.85;0.40;;;10.40;91.10;;;;;;4999540;28;20070;-65
2023/12/11 05:38:17;;;;;;;0.50;0.50;;;10.40;91.10;;;;;;4999778;28;20477;-65
2023/12/11 05:40:42;;;;;;;0.70;0.35;;;10.40;91.10;;;;;;4998255;28;20112;-65
2023/12/11 05:43:08;;;;;;;0.52;0.50;;;10.40;91.10;;;;;;4999792;28;20049;-65
2023/12/11 05:45:34;;;;;;;0.60;0.60;;;10.50;91.10;;;;;;4999620;28;20577;-65
2023/12/11 05:47:59;;;;;;;0.75;0.60;;;10.50;91.10;;;;;;4999806;28;20038;-65
2023/12/11 05:50:25;;;;;;;0.55;0.50;;;10.50;91.10;;;;;;5000203;28;20034;-65
2023/12/11 05:52:50;;;;;;;0.40;0.40;;;10.50;91.10;;;;;;4998991;28;20040;-65
2023/12/11 05:55:16;;;;;;;0.77;0.50;;;10.50;91.10;;;;;;4999747;28;20041;-65
2023/12/11 05:57:42;;;;;;;0.68;0.40;;;10.40;91.10;;;;;;4999302;28;20150;-65
2023/12/11 06:00:08;;;;;;;0.88;0.60;;;10.40;91.10;;;;;;4999449;28;20121;-64
2023/12/11 06:02:33;;;;;;;0.60;0.40;;;10.50;91.10;;;;;;4998208;28;20673;-65
2023/12/11 06:04:59;;;;;;;0.73;0.73;;;10.50;91.10;;;;;;4998363;28;20034;-65
2023/12/11 06:07:27;;;;;;;0.82;0.80;;;10.50;91.10;;;;;;4997593;28;20242;-65
2023/12/11 06:09:53;;;;;;;1.65;1.10;;;10.50;91.10;;;;;;4997912;28;20042;-65
2023/12/11 06:12:18;;;;;;;3.70;1.70;;;10.50;91.10;;;;;;4998479;28;20034;-65
2023/12/11 06:14:44;;;;;;;2.08;1.25;;;10.50;91.10;;;;;;4998085;28;20035;-65
2023/12/11 06:17:10;;;;;;;1.98;1.08;;;10.50;91.10;;;;;;4997908;28;20049;-65
2023/12/11 06:19:35;;;;;;;1.20;0.77;;;10.50;91.10;;;;;;4998094;28;20034;-65
2023/12/11 06:22:01;;;;;;;0.60;0.40;;;10.50;91.10;;;;;;4998070;28;20047;-65
2023/12/11 06:24:26;;;;;;;0.82;0.70;;;10.50;91.10;;;;;;4998641;28;20039;-65
2023/12/11 06:26:53;;;;;;;0.60;0.60;;;10.50;91.10;;;;;;4998827;28;20041;-65
2023/12/11 06:29:22;;;;;;;0.70;0.60;;;10.60;91.20;;;;;;4998383;28;20647;-65
2023/12/11 06:31:47;;;;;;;0.60;0.60;;;10.60;91.20;;;;;;4998518;28;20444;-65
2023/12/11 06:34:13;;;;;;;0.50;0.50;;;10.60;91.20;;;;;;4998703;28;20534;-65
2023/12/11 06:36:39;;;;;;;0.50;0.40;;;10.60;91.20;;;;;;4998302;28;20030;-65
2023/12/11 06:39:04;;;;;;;0.50;0.40;;;10.60;91.20;;;;;;4998802;28;20480;-65
2023/12/11 06:41:30;;;;;;;1.08;0.50;;;10.60;91.20;;;;;;4996595;28;20367;-65
2023/12/11 06:43:57;;;;;;;0.35;0.35;;;10.60;91.20;;;;;;4996713;28;20041;-65
2023/12/11 06:46:25;;;;;;;0.75;0.32;;;10.60;91.30;;;;;;4998720;28;20029;-65
2023/12/11 06:48:50;;;;;;;0.82;0.40;;;10.60;91.30;;;;;;4998164;28;20030;-65
2023/12/11 06:51:16;;;;;;;0.55;0.50;;;10.60;91.30;;;;;;4998118;28;20038;-65
2023/12/11 06:53:41;;;;;;;0.63;0.50;;;10.70;91.30;;;;;;4999065;28;20490;-65
2023/12/11 06:56:08;;;;;;;0.75;0.38;;;10.60;91.20;;;;;;4998968;28;20041;-65
2023/12/11 06:58:33;;;;;;;1.75;0.43;;;10.70;91.30;;;;;;4998272;28;20483;-65
2023/12/11 07:01:00;;;;;;;0.40;0.40;;;10.70;91.30;;;;;;4997940;28;20042;-65
2023/12/11 07:03:26;;;;;;;2.22;0.40;;;10.70;91.40;;;;;;4998332;28;20099;-65
2023/12/11 07:05:52;;;;;;;0.40;0.25;;;10.70;91.40;;;;;;4998103;28;20034;-65
2023/12/11 07:08:17;;;;;;;0.40;0.30;;;10.70;91.50;;;;;;4998522;28;20037;-64
2023/12/11 07:10:43;;;;;;;1.23;0.60;;;10.70;91.50;;;;;;4998255;28;20504;-65
2023/12/11 07:13:09;;;;;;;0.40;0.40;;;10.80;91.60;;;;;;4998534;28;20035;-65
2023/12/11 07:15:37;;;;;;;0.52;0.50;;;10.80;91.60;;;;;;4998090;28;20069;-65
2023/12/11 07:18:03;;;;;;;0.40;0.40;;;10.80;91.70;;;;;;4998452;28;20112;-65
2023/12/11 07:20:29;;;;;;;0.43;0.40;;;10.90;91.70;;;;;;4997777;28;20058;-64
2023/12/11 07:22:55;;;;;;;0.68;0.40;;;10.90;91.70;;;;;;4997963;28;20088;-65
2023/12/11 07:25:20;;;;;;;0.60;0.32;;;11.00;91.70;;;;;;4998273;28;20639;-65
2023/12/11 07:27:46;;;;;;;0.40;0.30;;;11.00;91.80;;;;;;4997829;28;20060;-65
2023/12/11 07:30:14;;;;;;;0.90;0.30;;;11.00;91.70;;;;;;4998525;28;20561;-65
2023/12/11 07:32:40;;;;;;;0.43;0.30;;;11.00;91.70;;;;;;4998288;28;20096;-65
2023/12/11 07:35:08;;;;;;;0.30;0.20;;;11.10;91.70;;;;;;4998612;28;20546;-65
2023/12/11 07:37:33;;;;;;;0.50;0.20;;;11.10;91.60;;;;;;4997457;28;20405;-64
2023/12/11 07:39:59;;;;;;;0.57;0.25;;;11.10;91.60;;;;;;4996808;28;20044;-65
2023/12/11 07:42:25;;;;;;;0.35;0.20;;;11.10;91.50;;;;;;4996727;28;20042;-65
2023/12/11 07:44:50;;;;;;;0.63;0.22;;;11.20;91.50;;;;;;4996994;28;20038;-65
2023/12/11 07:47:19;;;;;;;0.17;0.10;;;11.20;91.30;;;;;;4996439;28;20041;-65
2023/12/11 07:49:47;;;;;;;0.43;0.30;;;11.20;91.20;;;;;;4996751;28;20514;-65
2023/12/11 07:52:12;;;;;;;0.63;0.20;;;11.30;91.00;;;;;;4997996;28;20045;-65
2023/12/11 07:54:38;;;;;;;0.77;0.50;;;11.40;90.80;;;;;;5000991;28;20085;-65
2023/12/11 07:57:04;;;;;;;2.20;0.60;;;11.40;90.60;;;;;;5001237;28;20230;-65
2023/12/11 07:59:33;;;;;;;1.55;0.40;;;11.40;90.50;;;;;;5000707;28;20236;-65
2023/12/11 08:01:59;;;;;;;1.05;0.40;;;11.50;90.30;;;;;;5000999;28;20116;-65
2023/12/11 08:04:24;;;;;;;0.88;0.20;;;11.50;90.20;;;;;;5002003;28;20492;-65
2023/12/11 08:06:50;;;;;;;0.50;0.20;;;11.50;90.10;;;;;;5001448;28;20072;-65
2023/12/11 08:09:15;;;;;;;0.30;0.20;;;11.60;90.00;;;;;;5001526;28;20030;-64
2023/12/11 08:11:41;;;;;;;0.50;0.20;;;11.60;90.00;;;;;;5001347;28;20029;-65
2023/12/11 08:14:07;;;;;;;1.02;0.40;;;11.60;90.00;;;;;;5002533;28;20034;-65
2023/12/11 08:16:32;;;;;;;0.17;0.17;;;11.70;90.30;;;;;;5000924;28;20035;-65
2023/12/11 08:18:58;;;;;;;0.32;0.13;;;11.70;90.00;;;;;;5001083;28;20038;-65
2023/12/11 08:21:23;;;;;;;0.40;0.20;;;11.70;90.30;;;;;;5000826;28;20030;-66
2023/12/11 08:23:51;;;;;;;0.50;0.30;;;11.80;90.00;;;;;;5000804;28;20038;-65
2023/12/11 08:26:18;;;;;;;0.32;0.17;;;11.70;90.00;;;;;;5015932;28;20042;-65
2023/12/11 08:28:45;;;;;;;0.60;0.17;;;11.80;90.00;;;;;;5000761;28;20113;-65
2023/12/11 08:31:11;;;;;;;0.45;0.20;;;11.70;90.00;;;;;;5000037;28;20090;-64
2023/12/11 08:33:37;;;;;;;0.52;0.40;;;11.80;90.10;;;;;;5001359;28;20038;-65
2023/12/11 08:36:03;;;;;;;0.85;0.30;;;11.80;90.10;;;;;;5000735;28;20030;-65
2023/12/11 08:38:29;;;;;;;0.40;0.20;;;11.80;90.10;;;;;;5001293;28;20034;-65
2023/12/11 08:40:55;;;;;;;0.70;0.30;;;11.80;90.20;;;;;;5000660;28;20046;-65
2023/12/11 08:43:21;;;;;;;0.50;0.30;;;11.80;90.20;;;;;;5001215;28;20042;-64
2023/12/11 08:45:47;;;;;;;0.40;0.20;;;11.80;90.20;;;;;;5001024;28;20038;-64
2023/12/11 08:48:13;;;;;;;0.10;0.10;;;11.80;90.30;;;;;;4999945;28;20034;-65
2023/12/11 08:50:39;;;;;;;0.25;0.22;;;11.80;90.30;;;;;;4999279;28;20108;-65
2023/12/11 08:53:05;;;;;;;0.22;0.20;;;11.80;90.30;;;;;;5000293;28;20537;-65
2023/12/11 08:55:31;;;;;;;0.30;0.20;;;11.80;90.30;;;;;;4999248;28;20065;-65
2023/12/11 08:57:57;;;;;;;1.08;0.25;;;11.80;90.40;;;;;;5000767;28;20042;-65
2023/12/11 09:00:22;;;;;;;0.40;0.20;;;11.80;90.40;;;;;;4999284;28;20038;-65
2023/12/11 09:02:48;;;;;;;0.43;0.30;;;11.80;90.30;;;;;;4999360;28;20049;-65
2023/12/11 09:05:14;;;;;;;0.88;0.30;;;11.90;90.30;;;;;;5001400;28;20733;-65
2023/12/11 09:07:40;;;;;;;0.50;0.30;;;11.90;90.30;;;;;;5001705;28;20038;-65
2023/12/11 09:10:08;;;;;;;1.15;0.30;;;11.90;90.30;;;;;;5002047;28;20417;-65
2023/12/11 09:12:35;;;;;;;1.30;0.10;;;11.90;90.30;;;;;;5001765;28;20026;-64
2023/12/11 09:15:01;;;;;;;1.08;0.15;;;11.90;90.30;;;;;;5001459;28;20763;-65
2023/12/11 09:17:26;;;;;;;0.43;0.30;;;11.90;90.30;;;;;;5001441;28;20030;-65
2023/12/11 09:19:52;;;;;;;0.30;0.30;;;11.90;90.30;;;;;;5001028;28;20034;-65
2023/12/11 09:22:17;;;;;;;0.20;0.20;;;12.00;90.30;;;;;;5000703;28;20437;-65
2023/12/11 09:24:43;;;;;;;0.88;0.30;;;12.00;90.30;;;;;;5001236;28;20030;-64
2023/12/11 09:27:09;;;;;;;0.35;0.30;;;12.00;90.20;;;;;;5001407;28;20062;-65
2023/12/11 09:29:35;;;;;;;0.25;0.20;;;12.00;90.20;;;;;;5001712;28;20031;-65
2023/12/11 09:32:00;;;;;;;0.85;0.30;;;12.00;90.10;;;;;;5000214;28;20125;-64
2023/12/11 09:34:26;;;;;;;4.10;0.57;;;12.00;90.10;;;;;;5002363;28;20463;-65
2023/12/11 09:36:51;;;;;;;1.15;0.38;;;12.10;90.10;;;;;;5001092;28;20039;-64
2023/12/11 09:39:17;;;;;;;0.80;0.30;;;12.10;90.10;;;;;;4999887;28;20041;-65
2023/12/11 09:41:47;;;;;;;0.52;0.20;;;12.10;90.00;;;;;;5001175;28;20053;-64
2023/12/11 09:44:13;;;;;;;0.40;0.20;;;12.10;90.00;;;;;;5002103;28;20117;-65
2023/12/11 09:46:52;;;;;;;0.32;0.10;;;12.10;90.00;;;;;;5000304;28;20109;-65
2023/12/11 09:49:18;;;;;;;0.52;0.15;;;12.10;89.90;;;;;;4999464;28;20038;-65
2023/12/11 09:51:44;;;;;;;0.20;0.20;;;12.20;89.90;;;;;;4999503;28;20552;-65
2023/12/11 09:54:11;;;;;;;0.20;0.20;;;12.10;89.90;;;;;;5000671;28;20066;-65
2023/12/11 09:56:42;;;;;;;1.63;0.20;;;12.20;89.90;;;;;;4999927;28;20397;-65
2023/12/11 09:59:11;;;;;;;0.20;0.10;;;12.20;89.90;;;;;;5000285;28;20037;-65
2023/12/11 10:01:37;;;;;;;0.52;0.10;;;12.20;89.80;;;;;;4999268;28;20042;-65
2023/12/11 10:04:03;;;;;;;0.40;0.28;;;12.20;89.90;;;;;;5001263;28;20066;-65
2023/12/11 10:06:29;;;;;;;0.15;0.15;;;12.20;89.90;;;;;;5001498;28;20061;-65
2023/12/11 10:08:55;;;;;;;0.20;0.20;;;12.20;89.90;;;;;;5000403;28;20088;-65
2023/12/11 10:11:26;;;;;;;0.45;0.20;;;12.20;89.90;;;;;;5000487;28;20080;-65
2023/12/11 10:13:52;;;;;;;1.85;0.30;;;12.20;89.90;;;;;;5001073;28;20039;-65
2023/12/11 10:16:28;;;;;;;0.82;0.30;;;12.20;89.90;;;;;;5000230;28;20022;-65
2023/12/11 10:18:54;;;;;;;0.68;0.20;;;12.20;89.90;;;;;;5001376;28;20516;-65
2023/12/11 10:21:19;;;;;;;0.95;0.30;;;12.30;89.90;;;;;;5000947;28;20026;-65
2023/12/11 10:24:01;;;;;;;1.20;0.30;;;12.30;89.90;;;;;;5001165;28;20037;-65
2023/12/11 10:26:27;;;;;;;0.22;0.22;;;12.30;89.70;;;;;;5001426;28;20034;-65
2023/12/11 10:28:53;;;;;;;1.27;0.32;;;12.30;89.70;;;;;;5000455;28;20030;-65
2023/12/11 10:31:19;;;;;;;0.68;0.30;;;12.30;89.60;;;;;;4999815;28;20533;-65
2023/12/11 10:33:51;;;;;;;1.00;0.47;;;12.30;89.50;;;;;;5000164;28;20423;-65
2023/12/11 10:36:17;;;;;;;1.58;0.52;;;12.30;89.40;;;;;;5000542;28;20045;-65
2023/12/11 10:38:42;;;;;;;0.45;0.35;;;12.30;89.30;;;;;;5000733;28;20030;-64
2023/12/11 10:41:23;;;;;;;1.33;0.50;;;12.30;89.20;;;;;;5000511;28;20084;-66
2023/12/11 10:43:48;;;;;;;0.50;0.30;;;12.30;89.20;;;;;;5000210;28;20035;-65
2023/12/11 10:46:14;;;;;;;1.00;0.40;;;12.30;89.00;;;;;;4999303;28;20037;-65
2023/12/11 10:48:43;;;;;;;0.50;0.40;;;12.30;89.00;;;;;;4999370;28;20572;-65
2023/12/11 10:51:09;;;;;;;0.75;0.50;;;12.30;89.00;;;;;;5000239;28;20034;-66
2023/12/11 10:53:37;;;;;;;0.50;0.30;;;12.30;88.80;;;;;;5000639;28;20041;-65
2023/12/11 10:56:04;;;;;;;0.30;0.30;;;12.30;88.60;;;;;;5000152;28;20504;-65
2023/12/11 10:58:30;;;;;;;0.85;0.52;;;12.30;88.50;;;;;;5000697;28;20038;-64
2023/12/11 11:01:01;;;;;;;1.02;0.60;;;12.30;88.30;;;;;;4998183;28;20561;-65
2023/12/11 11:03:30;;;;;;;0.57;0.50;;;12.30;88.10;;;;;;4998944;28;20044;-64
2023/12/11 11:05:57;;;;;;;1.15;0.50;;;12.30;88.00;;;;;;4998744;28;20469;-65
2023/12/11 11:08:45;;;;;;;0.65;0.38;;;12.30;87.80;;;;;;4998953;28;20131;-65
2023/12/11 11:11:24;;;;;;;0.40;0.40;;;12.30;87.30;;;;;;4998322;28;20103;-64
2023/12/11 11:14:17;;;;;;;0.70;0.40;;;12.30;87.30;;;;;;4998239;28;20494;-65
2023/12/11 11:17:03;;;;;;;0.88;0.50;;;12.30;86.90;;;;;;4998988;28;20030;-65
2023/12/11 11:19:29;;;;;;;0.60;0.40;;;12.30;86.90;;;;;;4997672;28;20627;-65
2023/12/11 11:22:20;;;;;;;1.73;0.40;;;12.30;87.20;;;;;;4998626;28;20038;-65
2023/12/11 11:24:46;;;;;;;0.80;0.30;;;12.30;86.90;;;;;;4999640;28;20531;-64
2023/12/11 11:27:41;;;;;;;0.40;0.40;;;12.30;87.10;;;;;;5000392;28;20046;-64
2023/12/11 11:30:07;;;;;;;0.38;0.30;;;12.20;86.50;;;;;;5003559;28;20045;-65
2023/12/11 11:32:56;;;;;;;0.50;0.40;;;12.30;86.90;;;;;;5003016;28;20089;-64
2023/12/11 11:35:43;;;;;;;0.40;0.30;;;12.30;86.60;;;;;;5003170;28;20093;-65
2023/12/11 11:38:09;;;;;;;0.40;0.32;;;12.20;86.50;;;;;;5003220;28;20505;-64
2023/12/11 11:40:36;;;;;;;0.47;0.25;;;12.20;86.70;;;;;;5003023;28;20057;-64
2023/12/11 11:43:03;;;;;;;2.10;0.30;;;12.20;86.70;;;;;;5003874;28;20034;-65
2023/12/11 11:45:30;;;;;;;0.20;0.20;;;12.20;86.70;;;;;;5003339;28;20045;-65
2023/12/11 11:47:55;;;;;;;0.43;0.30;;;12.20;86.70;;;;;;5003616;28;20121;-65
2023/12/11 11:50:21;;;;;;;0.30;0.30;;;12.20;86.70;;;;;;5003899;28;20164;-65
2023/12/11 11:52:58;;;;;;;0.25;0.20;;;12.20;87.00;;;;;;5003794;28;20030;-65
2023/12/11 11:55:27;;;;;;;0.38;0.20;;;12.10;86.30;;;;;;5002152;28;20029;-64
2023/12/11 11:57:59;;;;;;;0.73;0.25;;;12.20;86.40;;;;;;5004001;28;20092;-64
2023/12/11 12:00:28;;;;;;;0.85;0.28;;;12.10;86.30;;;;;;5003192;28;20112;-65
2023/12/11 12:02:57;;;;;;;3.40;1.33;;;12.20;86.40;;;;;;5003468;28;20064;-65
2023/12/11 12:05:22;;;;;;;1.33;0.50;;;12.20;86.20;;;;;;5003333;28;20064;-64
2023/12/11 12:07:49;;;;;;;0.20;0.20;;;12.10;86.20;;;;;;5003126;28;20068;-65
2023/12/11 12:10:16;;;;;;;1.25;0.30;;;12.20;86.30;;;;;;5003275;28;20048;-64
2023/12/11 12:12:42;;;;;;;0.40;0.40;;;12.20;86.30;;;;;;5003045;28;20030;-64
2023/12/11 12:15:08;;;;;;;0.38;0.30;;;12.10;86.20;;;;;;5002969;28;20535;-64
2023/12/11 12:17:35;;;;;;;0.95;0.40;;;12.10;86.20;;;;;;5003079;28;20161;-64
2023/12/11 12:20:21;;;;;;;0.40;0.40;;;12.20;86.30;;;;;;5002344;28;20517;-64
2023/12/11 12:23:00;;;;;;;0.60;0.40;;;12.20;86.00;;;;;;5002454;28;20045;-64
2023/12/11 12:25:27;;;;;;;0.25;0.20;;;12.20;86.10;;;;;;5001350;28;20121;-64
2023/12/11 12:27:54;;;;;;;0.57;0.30;;;12.20;86.10;;;;;;5002115;28;20038;-64
2023/12/11 12:30:21;;;;;;;1.05;0.50;;;12.10;85.90;;;;;;5001304;28;20235;-64
2023/12/11 12:32:52;;;;;;;0.60;0.40;;;12.20;85.60;;;;;;5001562;28;20034;-64
2023/12/11 12:35:19;;;;;;;0.50;0.20;;;12.20;85.30;;;;;;5001001;28;20042;-65
2023/12/11 12:37:47;;;;;;;0.55;0.30;;;12.20;86.20;;;;;;5001606;28;20038;-64
2023/12/11 12:40:13;;;;;;;0.77;0.77;;;12.20;85.30;;;;;;5000786;28;20034;-64
2023/12/11 12:42:39;;;;;;;0.88;0.80;;;12.20;85.20;;;;;;5001605;28;20038;-64
2023/12/11 12:45:06;;;;;;;0.30;0.30;;;12.20;85.10;;;;;;5002229;28;20065;-64
2023/12/11 12:47:32;;;;;;;0.30;0.30;;;12.20;85.00;;;;;;5001111;28;20026;-64